createdAt,value
2023-05-21T00:01:53.936Z,21.05
2023-05-21T00:04:57.560Z,20.40
2023-05-21T00:08:00.852Z,28.77
2023-05-21T00:11:04.255Z,30.73
2023-05-21T00:14:09.608Z,28.42
2023-05-21T00:17:14.483Z,28.80
2023-05-21T00:20:17.945Z,30.80
2023-05-21T00:23:21.539Z,26.17
2023-05-21T00:26:25.142Z,21.50
2023-05-21T00:29:32.361Z,24.13
2023-05-21T00:32:37.716Z,23.63
2023-05-21T00:35:43.668Z,23.45
2023-05-21T00:38:46.886Z,21.40
2023-05-21T00:41:50.314Z,23.85
2023-05-21T00:44:54.194Z,22.23
2023-05-21T00:47:59.259Z,23.90
2023-05-21T00:51:02.826Z,20.63
2023-05-21T00:54:06.384Z,19.40
2023-05-21T00:57:09.634Z,20.90
2023-05-21T01:00:16.817Z,21.38
2023-05-21T01:03:21.867Z,20.90
2023-05-21T01:06:25.375Z,23.90
2023-05-21T01:09:29.374Z,23.15
2023-05-21T01:12:34.384Z,24.10
2023-05-21T01:15:39.035Z,21.93
2023-05-21T01:18:46.723Z,21.23
2023-05-21T01:21:57.697Z,21.83
2023-05-21T01:25:03.686Z,23.23
2023-05-21T01:28:07.556Z,25.35
2023-05-21T01:31:25.350Z,24.45
2023-05-21T01:34:36.827Z,22.92
2023-05-21T01:37:50.428Z,22.58
2023-05-21T01:40:58.896Z,25.63
2023-05-21T01:44:08.328Z,24.30
2023-05-21T01:47:12.310Z,26.92
2023-05-21T01:50:16.440Z,21.33
2023-05-21T01:53:19.932Z,23.43
2023-05-21T01:56:28.748Z,24.23
2023-05-21T01:59:32.339Z,23.17
2023-05-21T02:02:37.122Z,24.90
2023-05-21T02:05:42.954Z,27.20
2023-05-21T02:08:46.569Z,31.97
2023-05-21T02:11:54.267Z,28.73
2023-05-21T02:14:58.446Z,24.13
2023-05-21T02:18:04.489Z,24.97
2023-05-21T02:21:07.937Z,26.43
2023-05-21T02:24:11.350Z,25.53
2023-05-21T02:27:18.645Z,28.23
2023-05-21T02:30:22.377Z,27.03
2023-05-21T02:33:26.133Z,26.67
2023-05-21T02:36:33.273Z,25.63
2023-05-21T02:39:37.079Z,30.57
2023-05-21T02:42:45.218Z,25.93
2023-05-21T02:45:53.419Z,25.70
2023-05-21T02:48:59.167Z,28.53
2023-05-21T02:52:02.575Z,30.97
2023-05-21T02:55:07.240Z,28.97
2023-05-21T02:58:13.635Z,31.77
2023-05-21T03:01:19.217Z,28.70
2023-05-21T03:04:23.071Z,29.20
2023-05-21T03:07:26.336Z,28.90
2023-05-21T03:10:30.424Z,28.90
2023-05-21T03:13:35.214Z,28.00
2023-05-21T03:16:41.814Z,30.27
2023-05-21T03:19:46.607Z,32.43
2023-05-21T03:22:49.967Z,29.13
2023-05-21T03:25:56.336Z,29.03
2023-05-21T03:29:01.562Z,33.43
2023-05-21T03:32:06.501Z,34.47
2023-05-21T03:35:10.443Z,30.90
2023-05-21T03:38:13.683Z,31.47
2023-05-21T03:41:17.017Z,32.13
2023-05-21T03:44:25.759Z,31.53
2023-05-21T03:47:37.580Z,32.80
2023-05-21T03:50:43.644Z,33.30
2023-05-21T03:53:47.213Z,38.27
2023-05-21T03:56:51.627Z,34.47
2023-05-21T03:59:58.934Z,34.30
2023-05-21T04:03:02.401Z,34.27
2023-05-21T04:06:06.914Z,37.20
2023-05-21T04:09:10.802Z,35.77
2023-05-21T04:12:14.060Z,35.10
2023-05-21T04:15:18.929Z,40.50
2023-05-21T04:18:26.157Z,39.37
2023-05-21T04:21:29.683Z,35.80
2023-05-21T04:24:33.671Z,35.58
2023-05-21T04:27:47.794Z,36.37
2023-05-21T04:30:53.805Z,37.00
2023-05-21T04:33:57.126Z,39.30
2023-05-21T04:37:02.182Z,38.47
2023-05-21T04:40:07.297Z,31.27
2023-05-21T04:43:13.065Z,32.13
2023-05-21T04:46:17.780Z,34.88
2023-05-21T04:49:24.247Z,34.17
2023-05-21T04:52:28.888Z,32.03
2023-05-21T04:55:39.599Z,32.95
2023-05-21T04:58:43.162Z,37.00
2023-05-21T05:01:48.920Z,32.42
2023-05-21T05:04:55.096Z,30.95
2023-05-21T05:08:00.791Z,32.50
2023-05-21T05:11:04.320Z,28.77
2023-05-21T05:14:08.477Z,31.33
2023-05-21T05:17:15.598Z,28.48
2023-05-21T05:20:20.286Z,30.33
2023-05-21T05:23:23.964Z,32.63
2023-05-21T05:26:27.994Z,29.17
2023-05-21T05:29:34.885Z,32.28
2023-05-21T05:32:45.839Z,28.15
2023-05-21T05:35:54.809Z,28.42
2023-05-21T05:38:58.695Z,29.77
2023-05-21T05:42:03.355Z,29.67
2023-05-21T05:45:15.234Z,29.23
2023-05-21T05:48:21.751Z,27.60
2023-05-21T05:51:25.065Z,31.23
2023-05-21T05:54:31.222Z,29.25
2023-05-21T05:57:34.969Z,27.17
2023-05-21T06:00:44.760Z,30.38
2023-05-21T06:03:51.091Z,28.67
2023-05-21T06:06:55.029Z,28.92
2023-05-21T06:09:59.909Z,25.52
2023-05-21T06:13:03.722Z,29.40
2023-05-21T06:16:10.056Z,29.20
2023-05-21T06:19:15.836Z,29.65
2023-05-21T06:22:20.064Z,30.55
2023-05-21T06:25:27.034Z,28.95
2023-05-21T06:28:31.222Z,27.42
2023-05-21T06:31:36.600Z,24.95
2023-05-21T06:34:46.954Z,27.77
2023-05-21T06:37:50.357Z,24.77
2023-05-21T06:40:53.820Z,26.23
2023-05-21T06:44:13.053Z,24.90
2023-05-21T06:47:35.946Z,24.70
2023-05-21T06:50:40.882Z,23.88
2023-05-21T06:53:45.269Z,23.50
2023-05-21T06:56:49.074Z,22.73
2023-05-21T06:59:53.230Z,23.33
2023-05-21T07:02:57.259Z,24.58
2023-05-21T07:06:03.810Z,27.52
2023-05-21T07:09:07.349Z,29.38
2023-05-21T07:12:11.847Z,24.15
2023-05-21T07:15:17.583Z,23.52
2023-05-21T07:18:23.714Z,25.83
2023-05-21T07:21:31.226Z,22.73
2023-05-21T07:24:35.335Z,22.25
2023-05-21T07:27:42.675Z,22.58
2023-05-21T07:30:46.306Z,25.75
2023-05-21T07:33:54.448Z,22.30
2023-05-21T07:37:03.912Z,19.42
2023-05-21T07:40:10.138Z,20.55
2023-05-21T07:43:14.376Z,19.45
2023-05-21T07:46:18.484Z,20.60
2023-05-21T07:49:25.139Z,19.30
2023-05-21T07:52:30.868Z,18.25
2023-05-21T07:55:35.007Z,19.40
2023-05-21T07:58:39.443Z,17.10
2023-05-21T08:01:43.494Z,19.10
2023-05-21T08:04:48.470Z,19.70
2023-05-21T08:07:54.115Z,19.75
2023-05-21T08:10:58.950Z,20.55
2023-05-21T08:14:07.725Z,17.98
2023-05-21T08:17:14.956Z,17.08
2023-05-21T08:20:20.581Z,18.48
2023-05-21T08:23:27.363Z,17.35
2023-05-21T08:26:32.894Z,17.17
2023-05-21T08:29:39.669Z,16.00
2023-05-21T08:32:44.153Z,16.27
2023-05-21T08:35:48.113Z,14.32
2023-05-21T08:39:03.448Z,16.38
2023-05-21T08:42:36.214Z,15.38
2023-05-21T08:45:45.780Z,17.17
2023-05-21T08:48:55.059Z,14.45
2023-05-21T08:52:01.156Z,16.13
2023-05-21T08:55:11.038Z,13.52
2023-05-21T08:58:15.926Z,14.70
2023-05-21T09:01:20.302Z,13.65
2023-05-21T09:04:29.712Z,16.58
2023-05-21T09:07:40.761Z,17.35
2023-05-21T09:11:10.890Z,15.68
2023-05-21T09:14:25.042Z,14.90
2023-05-21T09:17:38.810Z,12.68
2023-05-21T09:21:31.514Z,16.10
2023-05-21T09:24:39.930Z,15.48
2023-05-21T09:27:46.000Z,12.38
2023-05-21T09:30:54.647Z,12.57
2023-05-21T09:34:05.951Z,12.52
2023-05-21T09:37:23.748Z,15.13
2023-05-21T09:40:30.931Z,13.00
2023-05-21T09:43:38.353Z,10.38
2023-05-21T09:46:43.766Z,15.32
2023-05-21T09:49:47.299Z,11.10
2023-05-21T09:52:53.241Z,11.35
2023-05-21T09:55:59.439Z,13.25
2023-05-21T09:59:05.250Z,14.82
2023-05-21T10:02:23.596Z,11.50
2023-05-21T10:05:31.266Z,11.10
2023-05-21T10:08:38.070Z,17.63
2023-05-21T10:11:46.161Z,11.35
2023-05-21T10:14:56.153Z,11.05
2023-05-21T10:18:01.143Z,12.30
2023-05-21T10:21:11.793Z,10.35
2023-05-21T10:24:16.638Z,10.40
2023-05-21T10:27:21.366Z,16.58
2023-05-21T10:30:26.611Z,11.40
2023-05-21T10:33:37.351Z,12.57
2023-05-21T10:36:45.580Z,16.70
2023-05-21T10:39:51.934Z,12.05
2023-05-21T10:43:26.062Z,9.75
2023-05-21T10:47:07.118Z,8.73
2023-05-21T10:50:44.983Z,9.13
2023-05-21T10:54:19.738Z,10.10
2023-05-21T10:57:56.538Z,8.00
2023-05-21T11:01:08.733Z,11.55
2023-05-21T11:04:15.765Z,9.32
2023-05-21T11:07:54.095Z,9.38
2023-05-21T11:10:59.968Z,12.05
2023-05-21T11:14:05.124Z,10.43
2023-05-21T11:17:40.417Z,10.60
2023-05-21T11:20:53.317Z,10.57
2023-05-21T11:23:58.140Z,8.05
2023-05-21T11:27:07.202Z,13.27
2023-05-21T11:30:16.505Z,9.55
2023-05-21T11:33:20.528Z,11.00
2023-05-21T11:36:36.173Z,8.10
2023-05-21T11:39:41.196Z,8.90
2023-05-21T11:42:45.108Z,9.80
2023-05-21T11:45:49.004Z,8.07
2023-05-21T11:49:01.480Z,8.20
2023-05-21T11:52:10.759Z,7.20
2023-05-21T11:55:15.918Z,9.93
2023-05-21T11:58:20.574Z,8.73
2023-05-21T12:01:24.408Z,9.85
2023-05-21T12:04:32.540Z,10.27
2023-05-21T12:07:41.160Z,8.75
2023-05-21T12:10:46.184Z,10.65
2023-05-21T12:13:51.990Z,8.60
2023-05-21T12:16:58.257Z,7.72
2023-05-21T12:20:08.004Z,7.18
2023-05-21T12:23:24.929Z,6.90
2023-05-21T12:26:33.408Z,11.07
2023-05-21T12:29:41.479Z,8.35
2023-05-21T12:32:45.786Z,10.13
2023-05-21T12:35:52.397Z,11.52
2023-05-21T12:39:00.084Z,8.73
2023-05-21T12:42:04.291Z,7.80
2023-05-21T12:45:09.566Z,8.60
2023-05-21T12:48:13.552Z,8.40
2023-05-21T12:51:17.090Z,12.68
2023-05-21T12:54:25.761Z,9.13
2023-05-21T12:57:39.386Z,7.45
2023-05-21T13:00:44.045Z,8.73
2023-05-21T13:03:47.879Z,7.85
2023-05-21T13:06:58.414Z,7.40
2023-05-21T13:10:07.988Z,13.27
2023-05-21T13:13:14.415Z,8.35
2023-05-21T13:16:17.927Z,8.52
2023-05-21T13:19:22.442Z,8.80
2023-05-21T13:22:32.823Z,8.52
2023-05-21T13:25:37.691Z,8.88
2023-05-21T13:28:43.286Z,7.60
2023-05-21T13:31:48.011Z,7.93
2023-05-21T13:34:53.866Z,7.22
2023-05-21T13:37:57.406Z,10.07
2023-05-21T13:41:03.317Z,9.65
2023-05-21T13:44:11.935Z,8.10
2023-05-21T13:47:16.438Z,8.55
2023-05-21T13:50:27.188Z,9.00
2023-05-21T13:53:34.121Z,7.43
2023-05-21T13:56:39.414Z,7.65
2023-05-21T13:59:43.043Z,8.40
2023-05-21T14:02:50.632Z,9.15
2023-05-21T14:05:54.668Z,12.90
2023-05-21T14:09:00.545Z,8.25
2023-05-21T14:12:42.265Z,11.50
2023-05-21T14:15:46.122Z,10.70
2023-05-21T14:18:49.893Z,6.55
2023-05-21T14:21:54.781Z,7.22
2023-05-21T14:25:15.699Z,8.02
2023-05-21T14:28:21.838Z,6.97
2023-05-21T14:31:27.746Z,7.13
2023-05-21T14:34:31.521Z,7.35
2023-05-21T14:37:35.196Z,10.80
2023-05-21T14:40:38.926Z,11.18
2023-05-21T14:43:43.717Z,6.20
2023-05-21T14:46:47.063Z,8.32
2023-05-21T14:49:55.745Z,8.38
2023-05-21T14:52:59.392Z,6.03
2023-05-21T14:56:05.363Z,8.93
2023-05-21T14:59:14.372Z,7.30
2023-05-21T15:02:24.991Z,8.55
2023-05-21T15:05:29.740Z,5.63
2023-05-21T15:08:33.159Z,7.43
2023-05-21T15:11:36.859Z,11.27
2023-05-21T15:14:45.036Z,9.00
2023-05-21T15:17:49.117Z,12.68
2023-05-21T15:20:54.348Z,7.75
2023-05-21T15:23:58.489Z,8.60
2023-05-21T15:27:07.619Z,7.90
2023-05-21T15:30:13.450Z,6.20
2023-05-21T15:33:17.147Z,7.22
2023-05-21T15:36:22.130Z,7.68
2023-05-21T15:39:28.939Z,7.40
2023-05-21T15:42:34.477Z,7.65
2023-05-21T15:45:39.633Z,7.20
2023-05-21T15:48:44.842Z,12.60
2023-05-21T15:51:51.685Z,10.27
2023-05-21T15:54:56.956Z,6.03
2023-05-21T15:58:02.181Z,10.48
2023-05-21T16:01:07.772Z,8.68
2023-05-21T16:04:11.820Z,10.25
2023-05-21T16:07:15.716Z,13.70
2023-05-21T16:10:25.766Z,7.97
2023-05-21T16:13:29.691Z,8.15
2023-05-21T16:16:35.743Z,7.20
2023-05-21T16:19:44.392Z,5.82
2023-05-21T16:22:50.089Z,6.65
2023-05-21T16:25:54.250Z,6.68
2023-05-21T16:29:02.821Z,10.13
2023-05-21T16:32:08.580Z,9.60
2023-05-21T16:35:12.160Z,8.95
2023-05-21T16:38:16.416Z,7.43
2023-05-21T16:41:20.261Z,9.15
2023-05-21T16:44:27.229Z,12.88
2023-05-21T16:47:40.361Z,8.82
2023-05-21T16:50:44.787Z,10.50
2023-05-21T16:53:49.919Z,6.03
2023-05-21T16:56:54.666Z,6.57
2023-05-21T16:59:58.457Z,8.82
2023-05-21T17:03:11.295Z,8.45
2023-05-21T17:06:15.091Z,6.85
2023-05-21T17:09:19.005Z,9.70
2023-05-21T17:12:23.864Z,7.00
2023-05-21T17:15:27.748Z,6.25
2023-05-21T17:18:32.807Z,8.32
2023-05-21T17:21:36.408Z,7.20
2023-05-21T17:24:40.432Z,8.70
2023-05-21T17:27:44.387Z,7.55
2023-05-21T17:30:49.609Z,8.88
2023-05-21T17:33:58.514Z,6.40
2023-05-21T17:37:06.265Z,6.53
2023-05-21T17:40:12.740Z,5.95
2023-05-21T17:43:27.788Z,7.85
2023-05-21T17:46:33.201Z,7.53
2023-05-21T17:49:37.943Z,10.90
2023-05-21T17:52:44.298Z,6.53
2023-05-21T17:55:51.281Z,6.20
2023-05-21T17:58:54.864Z,7.40
2023-05-21T18:02:09.094Z,6.22
2023-05-21T18:05:19.003Z,7.40
2023-05-21T18:08:22.365Z,9.05
2023-05-21T18:11:26.500Z,7.25
2023-05-21T18:14:30.020Z,5.57
2023-05-21T18:17:34.041Z,6.93
2023-05-21T18:20:41.419Z,6.35
2023-05-21T18:23:44.678Z,5.75
2023-05-21T18:26:48.096Z,6.95
2023-05-21T18:29:51.358Z,8.77
2023-05-21T18:32:55.200Z,5.93
2023-05-21T18:36:00.630Z,5.22
2023-05-21T18:39:09.288Z,7.00
2023-05-21T18:42:14.445Z,25.25
2023-05-21T18:45:18.879Z,11.95
2023-05-21T18:48:29.970Z,7.35
2023-05-21T18:51:34.444Z,6.32
2023-05-21T18:54:37.506Z,6.90
2023-05-21T18:57:42.995Z,8.27
2023-05-21T19:00:52.374Z,7.40
2023-05-21T19:03:55.692Z,6.72
2023-05-21T19:07:00.583Z,8.38
2023-05-21T19:10:05.785Z,5.95
2023-05-21T19:13:11.666Z,7.47
2023-05-21T19:16:19.006Z,6.82
2023-05-21T19:19:22.785Z,7.72
2023-05-21T19:22:28.812Z,6.25
2023-05-21T19:25:32.544Z,6.15
2023-05-21T19:28:36.187Z,7.05
2023-05-21T19:31:39.617Z,9.35
2023-05-21T19:34:43.599Z,6.65
2023-05-21T19:37:52.602Z,9.13
2023-05-21T19:40:56.680Z,7.00
2023-05-21T19:44:03.221Z,6.63
2023-05-21T19:47:07.465Z,6.57
2023-05-21T19:50:12.346Z,7.88
2023-05-21T19:53:17.020Z,7.25
2023-05-21T19:56:20.151Z,5.95
2023-05-21T19:59:23.325Z,8.55
2023-05-21T20:02:28.684Z,9.20
2023-05-21T20:05:32.069Z,8.55
2023-05-21T20:08:36.641Z,7.53
2023-05-21T20:11:40.032Z,7.45
2023-05-21T20:14:46.880Z,6.53
2023-05-21T20:17:51.035Z,8.90
2023-05-21T20:20:55.047Z,5.75
2023-05-21T20:23:59.890Z,9.32
2023-05-21T20:27:17.205Z,7.20
2023-05-21T20:30:21.128Z,7.80
2023-05-21T20:33:25.264Z,6.90
2023-05-21T20:36:30.488Z,8.48
2023-05-21T20:39:37.251Z,7.90
2023-05-21T20:42:41.747Z,7.72
2023-05-21T20:45:48.011Z,12.88
2023-05-21T20:48:53.044Z,8.85
2023-05-21T20:51:56.699Z,6.65
2023-05-21T20:55:04.717Z,8.73
2023-05-21T20:58:08.195Z,10.32
2023-05-21T21:01:11.996Z,7.22
2023-05-21T21:04:15.285Z,7.18
2023-05-21T21:07:19.353Z,7.10
2023-05-21T21:10:23.964Z,6.75
2023-05-21T21:13:27.629Z,7.45
2023-05-21T21:16:30.985Z,7.32
2023-05-21T21:19:35.439Z,7.88
2023-05-21T21:22:41.207Z,7.88
2023-05-21T21:25:48.046Z,7.18
2023-05-21T21:28:51.855Z,7.30
2023-05-21T21:31:55.611Z,7.55
2023-05-21T21:34:59.268Z,13.23
2023-05-21T21:38:07.025Z,7.32
2023-05-21T21:41:11.736Z,10.73
2023-05-21T21:44:15.788Z,6.90
2023-05-21T21:47:19.895Z,7.53
2023-05-21T21:50:26.864Z,10.10
2023-05-21T21:53:32.801Z,7.50
2023-05-21T21:56:38.546Z,7.57
2023-05-21T21:59:41.750Z,8.90
2023-05-21T22:02:46.642Z,7.10
2023-05-21T22:05:50.746Z,8.23
2023-05-21T22:08:54.128Z,7.63
2023-05-21T22:11:59.014Z,7.43
2023-05-21T22:15:05.415Z,7.55
2023-05-21T22:18:09.668Z,9.38
2023-05-21T22:21:14.612Z,11.75
2023-05-21T22:24:31.342Z,7.90
2023-05-21T22:27:37.745Z,7.05
2023-05-21T22:30:41.355Z,7.10
2023-05-21T22:33:45.158Z,10.15
2023-05-21T22:36:48.810Z,7.93
2023-05-21T22:39:52.241Z,6.35
2023-05-21T22:42:58.194Z,7.22
2023-05-21T22:46:02.382Z,7.25
2023-05-21T22:49:06.332Z,6.60
2023-05-21T22:52:09.610Z,6.63
2023-05-21T22:55:12.956Z,6.05
2023-05-21T22:58:17.964Z,6.10
2023-05-21T23:01:24.439Z,7.65
2023-05-21T23:04:43.359Z,7.15
2023-05-21T23:07:47.795Z,6.55
2023-05-21T23:10:51.167Z,6.60
2023-05-21T23:13:55.943Z,7.60
2023-05-21T23:17:02.677Z,6.10
2023-05-21T23:20:09.070Z,8.88
2023-05-21T23:23:12.952Z,7.13
2023-05-21T23:26:21.996Z,7.93
2023-05-21T23:29:36.500Z,7.05
2023-05-21T23:32:44.609Z,11.10
2023-05-21T23:36:00.631Z,10.13
2023-05-21T23:39:07.761Z,8.63
2023-05-21T23:42:13.271Z,7.32
2023-05-21T23:45:18.256Z,8.05
2023-05-21T23:48:24.245Z,7.22
2023-05-21T23:51:28.096Z,8.20
2023-05-21T23:54:31.422Z,6.53
2023-05-21T23:57:35.297Z,6.43
